Time;durP1;ratioP1;P1;durP2;ratioP2;P2;SDS_P1;SDS_P2;PMS_P1;PMS_P2;Temp;Humidity;BMP_temperature;BMP_pressure;BME280_temperature;BME280_humidity;BME280_pressure;Samples;Min_cycle;Max_cycle;Signal;HPM_P1;HPM_P2
2022/12/26 00:01:54;;;;;;;8.85;6.67;;;;;;;0.66;100.00;100697.36;1756186;81;21053;-71
2022/12/26 00:04:21;;;;;;;8.23;7.17;;;;;;;0.68;100.00;100698.50;1755987;81;21033;-71
2022/12/26 00:06:48;;;;;;;9.13;7.12;;;;;;;0.68;100.00;100689.23;1750979;81;21096;-71
2022/12/26 00:09:14;;;;;;;7.03;6.37;;;;;;;0.68;100.00;100689.23;1728529;81;21199;-72
2022/12/26 00:11:41;;;;;;;7.37;6.10;;;;;;;0.70;100.00;100689.92;1754114;81;20973;-70
2022/12/26 00:14:10;;;;;;;12.10;8.08;;;;;;;0.71;100.00;100700.36;1756568;81;20961;-69
2022/12/26 00:16:39;;;;;;;7.33;6.65;;;;;;;0.72;100.00;100707.80;1756222;81;21021;-72
2022/12/26 00:19:06;;;;;;;6.60;5.90;;;;;;;0.67;100.00;100704.81;1754778;81;21030;-71
2022/12/26 00:21:32;;;;;;;7.85;7.08;;;;;;;0.68;100.00;100701.15;1752225;81;21801;-73
2022/12/26 00:23:59;;;;;;;7.58;6.78;;;;;;;0.69;100.00;100698.35;1725998;81;20965;-75
2022/12/26 00:26:29;;;;;;;7.92;7.12;;;;;;;0.71;100.00;100699.03;1751809;81;20982;-73
2022/12/26 00:28:56;;;;;;;7.83;7.00;;;;;;;0.66;100.00;100694.72;1756781;81;21007;-70
2022/12/26 00:31:26;;;;;;;11.05;7.65;;;;;;;0.67;100.00;100692.90;1755737;81;21064;-72
2022/12/26 00:33:52;;;;;;;8.33;5.78;;;;;;;0.67;100.00;100691.58;1756668;81;21413;-71
2022/12/26 00:36:23;;;;;;;6.92;6.25;;;;;;;0.67;100.00;100691.05;1757212;81;20997;-70
2022/12/26 00:38:50;;;;;;;13.15;7.90;;;;;;;0.66;100.00;100680.64;1724165;82;21087;-72
2022/12/26 00:41:18;;;;;;;8.93;7.15;;;;;;;0.63;100.00;100680.45;1736718;81;20934;-72
2022/12/26 00:43:45;;;;;;;10.28;8.58;;;;;;;0.58;100.00;100683.25;1757684;81;21039;-72
2022/12/26 00:46:13;;;;;;;7.53;6.78;;;;;;;0.51;100.00;100683.58;1754125;81;21446;-72
2022/12/26 00:48:41;;;;;;;6.95;6.17;;;;;;;0.57;100.00;100693.03;1727529;82;21052;-74
2022/12/26 00:51:08;;;;;;;8.25;6.80;;;;;;;0.63;100.00;100685.75;1734471;81;21357;-73
2022/12/26 00:53:35;;;;;;;8.15;7.05;;;;;;;0.69;100.00;100688.25;1740073;81;20996;-75
2022/12/26 00:56:01;;;;;;;6.42;5.83;;;;;;;0.75;100.00;100687.13;1750590;81;20949;-72
2022/12/26 00:58:28;;;;;;;6.25;5.58;;;;;;;0.76;100.00;100688.78;1727609;83;21053;-72
2022/12/26 01:00:55;;;;;;;7.15;5.75;;;;;;;0.73;100.00;100698.84;1728190;81;21533;-72
2022/12/26 01:03:22;;;;;;;6.53;5.92;;;;;;;0.69;100.00;100709.43;1727575;82;21546;-76
2022/12/26 01:05:50;;;;;;;6.70;5.65;;;;;;;0.64;100.00;100707.77;1733242;81;21956;-74
2022/12/26 01:08:18;;;;;;;8.48;5.90;;;;;;;0.57;100.00;100709.41;1728341;81;21539;-74
2022/12/26 01:10:45;;;;;;;8.93;6.28;;;;;;;0.58;100.00;100709.72;1727673;82;21067;-73
2022/12/26 01:13:13;;;;;;;6.20;5.60;;;;;;;0.56;100.00;100713.87;1733648;81;21100;-72
2022/12/26 01:15:39;;;;;;;7.20;6.22;;;;;;;0.57;100.00;100714.70;1733148;81;21039;-74
2022/12/26 01:18:06;;;;;;;7.70;5.75;;;;;;;0.58;100.00;100710.55;1729978;82;21112;-72
2022/12/26 01:20:33;;;;;;;6.30;5.72;;;;;;;0.53;100.00;100704.11;1728900;81;20984;-76
2022/12/26 01:22:59;;;;;;;7.55;6.10;;;;;;;0.45;100.00;100708.85;1739737;81;21135;-76
2022/12/26 01:25:26;;;;;;;7.75;6.45;;;;;;;0.38;100.00;100707.33;1757588;81;21088;-72
2022/12/26 01:27:52;;;;;;;10.08;6.95;;;;;;;0.38;100.00;100710.50;1736231;81;21053;-73
2022/12/26 01:30:19;;;;;;;9.38;6.60;;;;;;;0.28;100.00;100714.59;1753633;81;21048;-73
2022/12/26 01:32:45;;;;;;;7.08;6.35;;;;;;;0.21;100.00;100716.69;1742910;81;21052;-71
2022/12/26 01:35:12;;;;;;;7.70;6.58;;;;;;;0.22;100.00;100706.44;1756133;81;21230;-72
2022/12/26 01:37:38;;;;;;;13.20;7.12;;;;;;;0.23;100.00;100708.11;1737725;82;21017;-74
2022/12/26 01:40:07;;;;;;;10.23;8.90;;;;;;;0.25;100.00;100702.14;1704696;82;21026;-73
2022/12/26 01:42:38;;;;;;;11.48;8.08;;;;;;;0.29;100.00;100714.06;1727928;81;20937;-73
2022/12/26 01:45:22;;;;;;;8.25;6.62;;;;;;;0.32;100.00;100709.31;1731131;81;21641;-74
2022/12/26 01:48:21;;;;;;;8.85;6.22;;;;;;;0.33;100.00;100704.36;1747962;81;22110;-75
2022/12/26 01:50:58;;;;;;;9.75;6.42;;;;;;;0.35;100.00;100709.47;1756425;81;22582;-73
2022/12/26 01:53:38;;;;;;;6.92;6.25;;;;;;;0.36;100.00;100701.38;1756298;81;20992;-73
2022/12/26 01:56:09;;;;;;;7.67;6.45;;;;;;;0.33;100.00;100695.59;1752917;81;21449;-75
2022/12/26 01:58:41;;;;;;;9.20;7.22;;;;;;;0.33;100.00;100691.63;1729735;81;21080;-73
2022/12/26 02:01:08;;;;;;;10.98;7.15;;;;;;;0.29;100.00;100691.09;1727946;82;21450;-74
2022/12/26 02:06:21;;;;;;;6.40;5.78;;;;;;;0.25;100.00;100694.21;1754882;80;21679;-74
2022/12/26 02:08:48;;;;;;;10.90;7.15;;;;;;;0.25;100.00;100694.21;1727983;82;21560;-74
2022/12/26 02:11:34;;;;;;;7.53;6.78;;;;;;;0.19;100.00;100694.34;1728374;82;21009;-74
2022/12/26 02:14:01;;;;;;;7.53;5.78;;;;;;;0.19;100.00;100687.73;1716069;81;21848;-75
2022/12/26 02:16:28;;;;;;;6.95;6.33;;;;;;;0.17;100.00;100685.76;1730364;81;21050;-72
2022/12/26 02:18:55;;;;;;;5.33;4.83;;;;;;;0.11;100.00;100694.81;1757111;81;20922;-73
2022/12/26 02:21:43;;;;;;;6.90;5.65;;;;;;;0.10;100.00;100694.47;1751479;80;21061;-73
2022/12/26 02:24:47;;;;;;;7.20;5.75;;;;;;;0.13;100.00;100698.14;1723749;81;21051;-73
2022/12/26 02:27:25;;;;;;;5.95;5.35;;;;;;;0.11;100.00;100693.48;1718172;83;21902;-73
2022/12/26 02:30:18;;;;;;;7.55;6.75;;;;;;;0.14;100.00;100690.55;1729280;81;21320;-73
2022/12/26 02:32:54;;;;;;;7.05;6.45;;;;;;;0.15;100.00;100689.05;1727823;82;20973;-73
2022/12/26 02:35:47;;;;;;;8.10;6.12;;;;;;;0.18;100.00;100695.36;1728485;81;21538;-74
2022/12/26 02:38:52;;;;;;;;;;;;;;;0.11;100.00;100692.16;1752015;81;21017;-72
2022/12/26 02:41:27;;;;;;;6.40;5.85;;;;;;;0.10;100.00;100693.14;1757451;81;21149;-73
2022/12/26 02:47:08;;;;;;;13.10;6.62;;;;;;;0.15;100.00;100696.14;1753812;80;21085;-72
2022/12/26 03:13:32;;;;;;;6.25;5.67;;;;;;;-0.08;100.00;100685.29;1650039;85;21099;-74
2022/12/26 03:18:57;;;;;;;7.40;6.37;;;;;;;-0.10;100.00;100684.14;1707009;82;21557;-74
2022/12/26 03:21:26;;;;;;;6.27;5.73;;;;;;;-0.05;100.00;100688.44;1733877;82;21045;-76
2022/12/26 03:23:52;;;;;;;6.00;5.45;;;;;;;0.02;100.00;100686.50;1733838;82;21249;-74
2022/12/26 03:26:39;;;;;;;5.28;4.87;;;;;;;0.07;100.00;100690.83;1756922;81;20962;-75
2022/12/26 03:31:59;;;;;;;5.28;4.78;;;;;;;0.09;100.00;100680.92;1728283;82;20937;-76
2022/12/26 03:34:25;;;;;;;6.05;5.55;;;;;;;0.08;100.00;100689.84;1745333;81;20985;-76
2022/12/26 03:37:18;;;;;;;6.45;5.90;;;;;;;0.04;99.58;100688.02;1739391;81;21092;-75
2022/12/26 04:44:33;;;;;;;10.87;9.57;;;;;;;-0.52;97.71;100728.93;1725609;81;21584;-75
2022/12/26 04:46:59;;;;;;;10.18;7.87;;;;;;;-0.50;97.90;100730.94;1738036;81;21513;-75
2022/12/26 04:52:13;;;;;;;9.67;7.37;;;;;;;-0.48;97.74;100726.83;1754014;81;21335;-77
2022/12/26 04:54:40;;;;;;;6.17;5.67;;;;;;;-0.49;97.80;100738.37;1747150;81;21079;-76
2022/12/26 04:57:09;;;;;;;8.37;6.63;;;;;;;-0.51;97.94;100731.92;1738010;81;21035;-76
2022/12/26 04:59:36;;;;;;;7.97;7.17;;;;;;;-0.53;97.95;100729.10;1756166;81;21126;-77
2022/12/26 05:10:24;;;;;;;11.30;9.80;;;;;;;-0.52;98.09;100736.86;1725984;82;21497;-76
2022/12/26 05:12:52;;;;;;;9.87;8.13;;;;;;;-0.53;97.81;100738.35;1725985;81;21083;-75
2022/12/26 05:15:18;;;;;;;9.17;7.50;;;;;;;-0.55;97.90;100742.45;1726130;81;21108;-77
2022/12/26 05:28:43;;;;;;;7.77;6.50;;;;;;;-0.48;97.77;100767.27;1715660;82;21245;-76
2022/12/26 05:31:15;;;;;;;9.60;7.37;;;;;;;-0.47;97.73;100770.75;1724899;81;21048;-78
2022/12/26 05:36:32;;;;;;;9.13;5.77;;;;;;;-0.46;97.51;100778.53;1731395;81;21083;-77
2022/12/26 05:38:59;;;;;;;7.13;6.43;;;;;;;-0.45;97.55;100784.16;1730254;81;21052;-76
2022/12/26 05:41:25;;;;;;;7.83;6.73;;;;;;;-0.45;97.40;100784.16;1724999;82;21062;-76
2022/12/26 05:43:52;;;;;;;7.27;5.90;;;;;;;-0.45;97.37;100792.09;1723927;81;20929;-77
2022/12/26 05:46:18;;;;;;;7.23;6.53;;;;;;;-0.47;97.26;100783.47;1729956;81;21081;-76
2022/12/26 05:48:45;;;;;;;8.27;6.70;;;;;;;-0.49;97.29;100780.17;1733768;80;21012;-76
2022/12/26 05:51:11;;;;;;;11.63;6.90;;;;;;;-0.48;97.40;100787.61;1725034;82;21000;-76
2022/12/26 05:53:38;;;;;;;8.30;7.07;;;;;;;-0.51;97.41;100784.77;1742217;81;21275;-79
2022/12/26 05:56:11;;;;;;;7.90;5.57;;;;;;;-0.51;97.49;100782.13;1753797;81;21105;-80
2022/12/26 05:58:37;;;;;;;7.17;6.40;;;;;;;-0.51;97.53;100782.61;1724894;82;22195;-80
2022/12/26 06:01:09;;;;;;;7.83;7.10;;;;;;;-0.52;97.45;100785.73;1735148;81;21117;-78
2022/12/26 06:03:36;;;;;;;7.73;6.93;;;;;;;-0.51;97.49;100785.25;1755335;81;21063;-79
2022/12/26 06:06:04;;;;;;;7.83;6.57;;;;;;;-0.48;97.45;100783.13;1725624;81;21099;-79
2022/12/26 06:08:32;;;;;;;9.70;8.73;;;;;;;-0.50;97.37;100782.47;1711672;83;20956;-80
2022/12/26 06:10:58;;;;;;;15.97;11.50;;;;;;;-0.54;97.29;100785.08;1718647;81;21116;-78
2022/12/26 06:13:25;;;;;;;12.07;10.73;;;;;;;-0.59;97.36;100779.90;1742187;81;21006;-78
2022/12/26 06:15:51;;;;;;;12.47;11.18;;;;;;;-0.59;97.59;100776.77;1725041;83;21024;-77
2022/12/26 06:18:19;;;;;;;11.47;9.30;;;;;;;-0.57;97.70;100772.15;1737542;81;20996;-81
2022/12/26 06:20:46;;;;;;;11.13;9.63;;;;;;;-0.59;97.31;100769.33;1725437;83;21517;-79
2022/12/26 06:23:12;;;;;;;8.07;7.23;;;;;;;-0.59;97.20;100777.26;1726174;81;21048;-78
2022/12/26 06:25:40;;;;;;;8.27;7.47;;;;;;;-0.62;96.94;100773.09;1729380;81;20948;-80
2022/12/26 06:28:07;;;;;;;8.87;6.97;;;;;;;-0.64;96.51;100776.39;1726784;81;21009;-79
2022/12/26 06:30:33;;;;;;;9.70;8.00;;;;;;;-0.67;96.47;100770.07;1724652;81;21075;-79
2022/12/26 06:33:01;;;;;;;9.80;7.43;;;;;;;-0.66;96.57;100762.98;1755116;81;21497;-79
2022/12/26 06:35:28;;;;;;;7.90;7.10;;;;;;;-0.64;96.41;100758.39;1756678;81;21003;-74
2022/12/26 06:37:54;;;;;;;7.27;6.50;;;;;;;-0.57;96.54;100762.91;1756472;81;21033;-81
2022/12/26 06:40:20;;;;;;;8.85;6.90;;;;;;;-0.49;96.37;100755.06;1736456;81;21103;-82
2022/12/26 06:42:47;;;;;;;9.23;7.60;;;;;;;-0.42;95.83;100759.23;1748450;81;21976;-79
2022/12/26 06:45:15;;;;;;;7.50;6.77;;;;;;;-0.40;95.50;100756.45;1727750;81;21015;-83
2022/12/26 06:47:42;;;;;;;9.10;7.60;;;;;;;-0.33;95.49;100754.83;1726434;83;20988;-79
2022/12/26 06:50:09;;;;;;;8.70;7.83;;;;;;;-0.33;94.85;100750.38;1725913;81;21031;-83
2022/12/26 06:52:35;;;;;;;9.53;8.60;;;;;;;-0.36;94.90;100745.41;1726299;83;21330;-81
2022/12/26 06:55:02;;;;;;;10.23;8.47;;;;;;;-0.42;94.78;100743.38;1726807;81;21021;-81
2022/12/26 06:57:29;;;;;;;9.43;8.47;;;;;;;-0.52;94.76;100746.59;1710769;81;21076;-82
2022/12/26 06:59:56;;;;;;;12.17;10.00;;;;;;;-0.55;94.93;100747.74;1737564;81;20980;-87
2022/12/26 07:02:24;;;;;;;11.20;9.10;;;;;;;-0.58;95.17;100749.37;1743694;81;21044;-90
2022/12/26 07:04:50;;;;;;;9.43;8.40;;;;;;;-0.61;95.29;100745.70;1729604;81;21085;-82
2022/12/26 07:07:18;;;;;;;10.73;9.47;;;;;;;-0.60;95.37;100753.13;1746483;81;21611;-81
2022/12/26 07:09:45;;;;;;;14.20;10.23;;;;;;;-0.60;95.34;100741.25;1724591;83;21032;-78
2022/12/26 07:12:11;;;;;;;16.30;11.10;;;;;;;-0.59;95.25;100747.71;1733701;81;21027;-82
2022/12/26 07:14:40;;;;;;;14.83;11.23;;;;;;;-0.58;95.28;100748.05;1723876;81;20991;-81
2022/12/26 07:17:08;;;;;;;18.00;12.20;;;;;;;-0.59;95.34;100750.35;1705055;84;21192;-83
2022/12/26 07:19:35;;;;;;;20.40;11.83;;;;;;;-0.56;95.48;100744.75;1675242;81;21088;-82
2022/12/26 07:22:01;;;;;;;19.40;12.20;;;;;;;-0.51;95.54;100744.30;1699567;82;20996;-82
2022/12/26 07:24:29;;;;;;;14.80;12.53;;;;;;;-0.48;95.44;100740.84;1726532;82;21572;-78
2022/12/26 07:26:56;;;;;;;14.90;12.17;;;;;;;-0.46;95.33;100744.67;1673532;84;21122;-78
2022/12/26 07:29:23;;;;;;;12.67;8.90;;;;;;;-0.45;95.13;100733.13;1720432;81;21563;-79
2022/12/26 07:31:49;;;;;;;11.53;9.40;;;;;;;-0.47;94.30;100733.75;1748781;81;21070;-80
2022/12/26 07:34:16;;;;;;;14.18;11.93;;;;;;;-0.53;93.87;100736.51;1724837;82;21028;-82
2022/12/26 07:36:42;;;;;;;14.70;9.13;;;;;;;-0.55;93.68;100737.66;1726416;81;21098;-81
2022/12/26 07:39:11;;;;;;;12.47;9.87;;;;;;;-0.57;93.60;100736.97;1720368;82;21019;-82
2022/12/26 07:41:56;;;;;;;19.53;13.60;;;;;;;-0.54;93.58;100751.22;1711164;81;21150;-84
2022/12/26 07:44:31;;;;;;;17.57;12.40;;;;;;;-0.49;93.80;100747.14;1725591;83;21588;-79
2022/12/26 07:46:58;;;;;;;19.23;14.60;;;;;;;-0.48;93.21;100750.09;1733958;82;20995;-75
2022/12/26 10:34:20;;;;;;;21.97;17.03;;;;;;;-0.11;99.95;100653.89;1702477;83;23793;-87
2022/12/26 10:37:34;;;;;;;22.37;16.03;;;;;;;-0.08;99.64;100658.36;1701326;82;21091;-87
2022/12/26 10:40:32;;;;;;;23.03;15.80;;;;;;;-0.03;99.08;100660.53;1665362;83;21296;-84
2022/12/26 10:43:06;;;;;;;16.90;14.90;;;;;;;-0.03;98.54;100663.17;1678734;83;21571;-82
2022/12/26 10:45:44;;;;;;;19.33;15.73;;;;;;;-0.04;98.30;100657.55;1660971;84;21017;-87
2022/12/26 10:48:12;;;;;;;25.00;15.73;;;;;;;-0.01;98.26;100651.47;1691740;84;22900;-85
2022/12/26 10:50:46;;;;;;;23.27;16.83;;;;;;;0.05;98.23;100651.83;1654109;84;20955;-85
2022/12/26 10:53:16;;;;;;;22.73;17.60;;;;;;;0.09;98.00;100651.34;1687961;84;21839;-84
2022/12/26 10:55:52;;;;;;;20.88;16.27;;;;;;;0.10;97.75;100648.18;1656099;84;21022;-86
2022/12/26 10:58:37;;;;;;;19.40;16.77;;;;;;;0.13;97.53;100651.84;1684953;84;21565;-86
2022/12/26 11:01:37;;;;;;;21.67;16.60;;;;;;;0.16;97.24;100643.09;1655847;84;21089;-85
2022/12/26 11:04:21;;;;;;;23.67;17.20;;;;;;;0.20;96.76;100639.63;1659808;84;21050;-83
2022/12/26 11:06:54;;;;;;;23.77;20.05;;;;;;;0.23;96.60;100627.42;1680968;83;21353;-83
2022/12/26 11:09:44;;;;;;;25.83;20.03;;;;;;;0.21;96.26;100618.81;1662047;84;21069;-84
2022/12/26 11:12:26;;;;;;;22.57;17.23;;;;;;;0.16;95.90;100615.32;1688504;84;21019;-83
2022/12/26 11:14:58;;;;;;;36.70;26.67;;;;;;;0.23;96.36;100614.20;1635006;83;21605;-84
2022/12/26 11:17:33;;;;;;;42.13;27.80;;;;;;;0.25;96.00;100628.08;1677582;84;21096;-82
2022/12/26 11:20:22;;;;;;;50.30;33.17;;;;;;;0.27;95.69;100618.17;1709738;82;21560;-81
2022/12/26 11:22:59;;;;;;;32.50;25.37;;;;;;;0.23;95.53;100620.81;1728937;82;21594;-81
2022/12/26 11:25:29;;;;;;;32.33;22.13;;;;;;;0.21;95.52;100620.13;1710007;83;21072;-84
2022/12/26 11:27:58;;;;;;;26.07;18.93;;;;;;;0.18;95.54;100616.49;1721566;81;21055;-81
2022/12/26 11:30:33;;;;;;;32.53;22.87;;;;;;;0.24;95.83;100615.86;1712588;82;21058;-84
2022/12/26 11:33:26;;;;;;;29.37;20.73;;;;;;;0.25;95.57;100617.00;1661079;82;21267;-82
2022/12/26 11:36:02;;;;;;;30.43;20.52;;;;;;;0.30;95.74;100609.91;1724817;82;21002;-84
2022/12/26 11:38:34;;;;;;;33.13;20.97;;;;;;;0.35;95.69;100608.44;1732922;81;21013;-85
2022/12/26 11:41:31;;;;;;;27.10;19.12;;;;;;;0.41;95.60;100603.00;1727266;82;21101;-85
2022/12/26 11:44:16;;;;;;;25.80;17.82;;;;;;;0.48;95.36;100606.64;1731792;82;21094;-84
2022/12/26 11:47:04;;;;;;;33.65;24.95;;;;;;;0.47;95.03;100607.66;1724172;81;21185;-84
2022/12/26 11:49:42;;;;;;;34.35;19.15;;;;;;;0.38;94.78;100600.69;1709951;83;21622;-84
2022/12/26 11:52:42;;;;;;;31.48;20.20;;;;;;;0.47;95.22;100598.39;1704795;83;20998;-81
2022/12/26 11:55:35;;;;;;;35.73;23.12;;;;;;;0.49;94.85;100596.39;1707263;83;21097;-87
2022/12/26 11:58:14;;;;;;;31.90;22.17;;;;;;;0.50;94.64;100607.81;1724067;81;21122;-81
2022/12/26 12:01:00;;;;;;;36.17;22.17;;;;;;;0.45;94.54;100608.30;1728261;82;21023;-84
2022/12/26 12:03:37;;;;;;;38.42;22.73;;;;;;;0.40;94.58;100604.81;1722480;82;21098;-81
2022/12/26 12:06:38;;;;;;;32.78;21.93;;;;;;;0.40;94.51;100600.02;1709445;83;20974;-81
2022/12/26 12:09:29;;;;;;;30.88;21.40;;;;;;;0.40;94.57;100604.81;1720261;81;21011;-80
2022/12/26 12:12:20;;;;;;;35.00;20.05;;;;;;;0.45;94.55;100601.69;1735871;82;21657;-83
2022/12/26 12:15:22;;;;;;;27.63;18.80;;;;;;;0.40;94.39;100607.95;1714106;82;20978;-82
2022/12/26 12:18:07;;;;;;;25.12;17.60;;;;;;;0.36;94.38;100611.91;1711851;82;21103;-81
2022/12/26 12:20:51;;;;;;;28.80;17.70;;;;;;;0.34;94.54;100624.47;1711053;81;21016;-83
2022/12/26 12:23:47;;;;;;;31.15;19.02;;;;;;;0.32;94.71;100625.97;1655300;84;21687;-82
2022/12/26 12:26:36;;;;;;;24.60;17.55;;;;;;;0.31;94.77;100617.69;1656405;84;21066;-81
2022/12/26 12:29:42;;;;;;;27.02;18.87;;;;;;;0.28;94.92;100615.38;1683852;81;21064;-81
2022/12/26 12:32:17;;;;;;;22.52;17.02;;;;;;;0.26;95.17;100611.22;1678673;84;21073;-80
2022/12/26 12:34:59;;;;;;;23.47;17.07;;;;;;;0.32;95.55;100615.38;1677775;84;21054;-81
2022/12/26 12:37:50;;;;;;;28.20;18.20;;;;;;;0.33;95.29;100621.02;1675648;84;21085;-82
2022/12/26 12:40:38;;;;;;;27.10;19.55;;;;;;;0.29;95.16;100624.95;1676185;84;21099;-83
2022/12/26 12:43:44;;;;;;;25.72;19.15;;;;;;;0.26;95.24;100627.92;1678832;83;21155;-81
2022/12/26 12:46:29;;;;;;;29.05;21.90;;;;;;;0.26;95.25;100617.84;1689320;83;21050;-81
2022/12/26 12:49:23;;;;;;;27.52;21.23;;;;;;;0.28;95.42;100611.41;1722786;82;21068;-84
2022/12/26 12:52:13;;;;;;;32.83;22.22;;;;;;;0.30;95.42;100605.45;1673843;83;21794;-81
2022/12/26 12:55:22;;;;;;;29.75;18.92;;;;;;;0.32;95.39;100594.71;1667432;85;21733;-82
2022/12/26 12:58:22;;;;;;;23.60;17.77;;;;;;;0.37;95.56;100592.41;1652795;85;21110;-79
2022/12/26 13:01:02;;;;;;;22.37;17.37;;;;;;;0.43;95.46;100603.16;1688773;82;21052;-82
2022/12/26 13:03:58;;;;;;;18.45;14.45;;;;;;;0.39;95.17;100603.15;1688214;81;21079;-82
2022/12/26 13:06:45;;;;;;;20.23;15.58;;;;;;;0.36;95.09;100598.20;1680775;83;21095;-85
2022/12/26 13:09:25;;;;;;;20.25;16.52;;;;;;;0.38;95.30;100587.45;1682500;83;21197;-80
2022/12/26 13:12:03;;;;;;;16.85;14.90;;;;;;;0.46;95.41;100589.28;1664220;82;21104;-81
2022/12/26 13:15:02;;;;;;;21.40;16.70;;;;;;;0.47;95.05;100589.63;1661934;84;21030;-82
2022/12/26 13:17:53;;;;;;;20.82;15.78;;;;;;;0.42;94.70;100585.65;1650128;85;21544;-83
2022/12/26 13:20:46;;;;;;;28.52;18.70;;;;;;;0.35;94.54;100582.47;1659067;84;21093;-80
2022/12/26 13:26:21;;;;;;;27.00;18.85;;;;;;;0.39;94.67;100583.30;1691610;82;21283;-81
2022/12/26 13:29:19;;;;;;;36.33;23.62;;;;;;;0.32;94.53;100572.22;1660117;85;21064;-79
2022/12/26 13:31:46;;;;;;;35.33;23.55;;;;;;;0.28;94.58;100570.90;1679549;83;21051;-82
2022/12/26 13:34:17;;;;;;;30.17;22.45;;;;;;;0.30;94.81;100563.61;1679683;83;21133;-84
2022/12/26 13:36:49;;;;;;;32.05;20.97;;;;;;;0.26;94.74;100559.63;1669112;84;21067;-78
2022/12/26 13:39:30;;;;;;;35.92;20.88;;;;;;;0.19;94.74;100550.70;1662616;84;21509;-80
2022/12/26 13:45:43;;;;;;;35.58;24.55;;;;;;;0.26;95.39;100552.53;1680116;83;21075;-82
2022/12/26 13:48:20;;;;;;;35.00;24.75;;;;;;;0.31;95.21;100541.46;1639021;86;21056;-83
2022/12/26 13:51:00;;;;;;;34.85;21.10;;;;;;;0.24;95.26;100538.63;1681157;82;21155;-83
2022/12/26 13:53:36;;;;;;;25.65;19.23;;;;;;;0.22;95.37;100535.83;1704019;82;22178;-83
2022/12/26 13:56:19;;;;;;;33.50;19.37;;;;;;;0.19;95.29;100544.09;1676979;84;21137;-81
2022/12/26 13:59:23;;;;;;;27.93;17.48;;;;;;;0.13;95.34;100532.83;1664020;83;21104;-81
2022/12/26 14:02:02;;;;;;;25.75;17.73;;;;;;;0.13;95.61;100548.20;1682784;83;21056;-84
2022/12/26 14:05:26;;;;;;;29.40;19.45;;;;;;;0.11;95.78;100548.02;1696392;83;21200;-82
2022/12/26 14:08:34;;;;;;;31.65;19.85;;;;;;;0.11;95.86;100545.37;1679567;84;21907;-83
2022/12/26 14:11:46;;;;;;;27.17;17.27;;;;;;;0.07;95.96;100541.41;1695345;82;21035;-80
2022/12/26 14:14:33;;;;;;;34.30;21.10;;;;;;;0.04;96.25;100540.42;1688821;83;21806;-83
2022/12/26 14:17:34;;;;;;;33.55;21.82;;;;;;;-0.01;96.33;100533.80;1694688;83;21827;-82
2022/12/26 14:20:23;;;;;;;38.95;21.90;;;;;;;0.00;96.54;100535.43;1692198;83;21492;-83
2022/12/26 14:23:53;;;;;;;30.52;20.05;;;;;;;0.00;96.72;100543.36;1716996;82;21024;-81
2022/12/26 14:26:38;;;;;;;29.17;20.40;;;;;;;0.05;96.95;100540.75;1731274;82;21018;-81
2022/12/26 18:11:34;;;;;;;22.00;19.00;;;;;;;-0.76;100.00;100318.05;1835206;76;22745;-82
2022/12/26 18:14:08;;;;;;;23.27;15.97;;;;;;;-0.76;100.00;100312.77;1812146;78;20928;-84
2022/12/26 18:16:35;;;;;;;21.23;17.50;;;;;;;-0.71;100.00;100306.50;1819594;77;21139;-83
2022/12/26 18:19:03;;;;;;;21.07;17.43;;;;;;;-0.68;100.00;100298.77;1819555;77;20869;-82
2022/12/26 18:21:33;;;;;;;25.00;16.83;;;;;;;-0.62;100.00;100293.64;1836315;77;20930;-82
2022/12/26 18:24:01;;;;;;;20.00;15.80;;;;;;;-0.56;100.00;100294.31;1841636;77;20954;-85
2022/12/26 18:26:31;;;;;;;19.00;15.97;;;;;;;-0.59;100.00;100296.47;1818905;77;20932;-86
2022/12/26 18:29:05;;;;;;;21.57;15.53;;;;;;;-0.56;100.00;100294.31;1842621;77;21253;-83
2022/12/26 18:31:35;;;;;;;21.37;16.00;;;;;;;-0.52;100.00;100275.00;1779093;80;20963;-80
2022/12/26 18:34:02;;;;;;;26.17;18.53;;;;;;;-0.41;100.00;100277.33;1838298;77;20967;-82
2022/12/26 18:36:35;;;;;;;25.53;17.60;;;;;;;-0.41;100.00;100276.00;1796288;77;20999;-84
2022/12/26 18:39:03;;;;;;;22.62;17.55;;;;;;;-0.39;100.00;100277.17;1801073;77;21003;-85
2022/12/26 18:41:31;;;;;;;19.57;17.00;;;;;;;-0.40;100.00;100278.16;1827925;77;21060;-84
2022/12/26 18:43:58;;;;;;;20.77;14.97;;;;;;;-0.37;100.00;100273.84;1815000;78;20881;-82
2022/12/26 18:46:28;;;;;;;21.77;16.10;;;;;;;-0.33;100.00;100271.20;1832380;77;21009;-85
2022/12/26 18:48:56;;;;;;;18.73;14.33;;;;;;;-0.27;100.00;100259.97;1820934;77;20916;-86
2022/12/26 18:51:27;;;;;;;21.47;14.10;;;;;;;-0.28;100.00;100251.70;1824499;77;20928;-87
2022/12/26 18:53:54;;;;;;;23.50;15.73;;;;;;;-0.30;100.00;100249.75;1798895;78;21264;-86
2022/12/26 18:56:23;;;;;;;18.23;14.33;;;;;;;-0.37;100.00;100230.25;1827405;77;20990;-82
2022/12/26 18:58:54;;;;;;;17.03;13.97;;;;;;;-0.33;100.00;100236.84;1793600;78;21030;-83
2022/12/26 19:01:21;;;;;;;18.13;14.57;;;;;;;-0.36;100.00;100240.66;1846765;77;21033;-87
2022/12/26 19:03:53;;;;;;;20.57;15.87;;;;;;;-0.33;100.00;100242.12;1817629;78;21019;-85
2022/12/26 19:06:23;;;;;;;15.72;14.03;;;;;;;-0.34;100.00;100220.20;1804735;77;26566;-88
2022/12/26 19:08:53;;;;;;;18.57;14.33;;;;;;;-0.34;100.00;100220.20;1837138;77;20942;-83
2022/12/26 19:11:19;;;;;;;20.23;16.00;;;;;;;-0.26;100.00;100208.77;1846048;77;21505;-86
2022/12/26 19:13:48;;;;;;;21.13;16.73;;;;;;;-0.27;100.00;100200.51;1822490;77;21094;-86
2022/12/26 19:16:17;;;;;;;16.73;13.67;;;;;;;-0.31;100.00;100193.42;1823776;78;20987;-85
2022/12/26 19:18:50;;;;;;;19.87;15.30;;;;;;;-0.31;100.00;100190.78;1844270;77;21074;-83
2022/12/26 19:21:22;;;;;;;16.33;13.27;;;;;;;-0.32;100.00;100191.77;1824279;77;20975;-86
2022/12/26 19:23:50;;;;;;;18.27;13.90;;;;;;;-0.29;100.00;100182.20;1841186;77;20862;-85
2022/12/26 19:26:23;;;;;;;18.37;14.00;;;;;;;-0.27;100.00;100169.63;1827782;77;21003;-87
2022/12/26 19:28:53;;;;;;;16.10;12.40;;;;;;;-0.24;100.00;100173.24;1810456;77;21166;-82
2022/12/26 19:31:20;;;;;;;21.37;15.40;;;;;;;-0.24;100.00;100175.09;1827782;77;21096;-85
2022/12/26 19:33:49;;;;;;;19.83;16.37;;;;;;;-0.24;100.00;100168.48;1792156;78;21006;-85
2022/12/26 19:36:17;;;;;;;19.30;15.33;;;;;;;-0.25;100.00;100167.66;1829406;77;21026;-86
2022/12/26 19:38:44;;;;;;;20.23;15.90;;;;;;;-0.27;100.00;100157.73;1840155;77;21681;-86
2022/12/26 19:41:14;;;;;;;23.67;16.23;;;;;;;-0.26;100.00;100165.17;1797299;78;21069;-84
2022/12/26 19:43:43;;;;;;;19.07;15.33;;;;;;;-0.25;100.00;100154.93;1796717;78;21052;-84
2022/12/26 19:46:11;;;;;;;16.40;13.93;;;;;;;-0.29;100.00;100152.30;1827675;77;21009;-84
2022/12/26 19:48:41;;;;;;;16.80;12.93;;;;;;;-0.32;100.00;100142.88;1793298;79;20899;-84
2022/12/26 19:51:14;;;;;;;19.70;13.27;;;;;;;-0.24;100.00;100151.30;1789433;78;21545;-80
2022/12/26 19:53:43;;;;;;;;;;;;;;;-0.21;100.00;100147.81;1797711;77;21039;-83
2022/12/26 19:56:19;;;;;;;18.83;14.57;;;;;;;-0.19;100.00;100164.84;1838912;77;21128;-90
2022/12/26 19:58:48;;;;;;;20.47;15.13;;;;;;;-0.25;100.00;100166.33;1837341;77;20939;-85
2022/12/26 20:01:24;;;;;;;19.43;11.87;;;;;;;-0.25;100.00;100157.58;1797637;77;20919;-86
2022/12/26 20:04:03;;;;;;;21.53;14.73;;;;;;;-0.30;100.00;100153.29;1821642;77;20983;-88
2022/12/26 20:06:34;;;;;;;21.43;15.83;;;;;;;-0.31;100.00;100152.95;1831991;77;20979;-85
2022/12/26 20:09:08;;;;;;;21.03;16.10;;;;;;;-0.33;100.00;100158.40;1827122;77;21186;-82
2022/12/26 20:11:37;;;;;;;20.77;15.00;;;;;;;-0.33;100.00;100143.04;1824846;77;21008;-83
2022/12/26 20:14:07;;;;;;;22.47;16.63;;;;;;;-0.37;100.00;100126.70;1829110;77;20992;-84
2022/12/26 20:16:34;;;;;;;26.33;19.83;;;;;;;-0.33;100.00;100135.11;1841987;77;21008;-81
2022/12/26 20:19:03;;;;;;;16.33;12.67;;;;;;;-0.30;100.00;100137.44;1828047;77;20991;-83
2022/12/26 20:21:31;;;;;;;17.77;12.13;;;;;;;-0.24;100.00;100136.77;1824056;78;21258;-81
2022/12/26 20:24:01;;;;;;;17.20;12.93;;;;;;;-0.26;100.00;100141.38;1824571;78;20968;-84
2022/12/26 20:26:29;;;;;;;19.27;15.17;;;;;;;-0.27;100.00;100156.91;1822088;77;21013;-85
2022/12/26 20:29:02;;;;;;;18.53;13.40;;;;;;;-0.29;100.00;100174.27;1843526;77;20989;-83
2022/12/26 20:31:30;;;;;;;;;;;;;;;-0.28;100.00;100165.82;1797592;78;21217;-83